sensor_id;sensor_type;location;lat;lon;timestamp;P1;durP1;ratioP1;P2;durP2;ratioP2
69369;SDS011;56530;42.640;23.372;2024-03-25T00:01:01;0.90;;;0.90;;
69369;SDS011;56530;42.640;23.372;2024-03-25T00:03:26;0.83;;;0.83;;
69369;SDS011;56530;42.640;23.372;2024-03-25T00:06:00;2.13;;;1.60;;
69369;SDS011;56530;42.640;23.372;2024-03-25T00:13:57;0.77;;;0.77;;
69369;SDS011;56530;42.640;23.372;2024-03-25T00:16:35;0.77;;;0.77;;
69369;SDS011;56530;42.640;23.372;2024-03-25T00:19:07;1.17;;;0.80;;
69369;SDS011;56530;42.640;23.372;2024-03-25T00:25:28;1.00;;;1.00;;
69369;SDS011;56530;42.640;23.372;2024-03-25T00:35:19;1.00;;;1.00;;
69369;SDS011;56530;42.640;23.372;2024-03-25T00:38:20;1.07;;;0.97;;
69369;SDS011;56530;42.640;23.372;2024-03-25T00:41:03;0.83;;;0.83;;
69369;SDS011;56530;42.640;23.372;2024-03-25T00:44:28;1.07;;;1.07;;
69369;SDS011;56530;42.640;23.372;2024-03-25T00:47:37;0.97;;;0.97;;
69369;SDS011;56530;42.640;23.372;2024-03-25T02:16:10;0.90;;;0.90;;
69369;SDS011;56530;42.640;23.372;2024-03-25T02:18:37;1.10;;;1.08;;
69369;SDS011;56530;42.640;23.372;2024-03-25T02:21:09;0.77;;;0.77;;
69369;SDS011;56530;42.640;23.372;2024-03-25T02:23:35;0.85;;;0.85;;
69369;SDS011;56530;42.640;23.372;2024-03-25T02:26:13;1.33;;;1.07;;
69369;SDS011;56530;42.640;23.372;2024-03-25T02:28:38;0.80;;;0.80;;
69369;SDS011;56530;42.640;23.372;2024-03-25T05:33:07;7.23;;;6.60;;
69369;SDS011;56530;42.640;23.372;2024-03-25T05:35:32;6.83;;;6.23;;
69369;SDS011;56530;42.640;23.372;2024-03-25T05:38:01;7.87;;;7.10;;
69369;SDS011;56530;42.640;23.372;2024-03-25T05:40:37;6.90;;;6.30;;
69369;SDS011;56530;42.640;23.372;2024-03-25T05:43:03;7.67;;;6.97;;
69369;SDS011;56530;42.640;23.372;2024-03-25T05:45:28;8.53;;;7.83;;
69369;SDS011;56530;42.640;23.372;2024-03-25T05:47:57;7.40;;;6.77;;
69369;SDS011;56530;42.640;23.372;2024-03-25T05:50:22;7.75;;;7.05;;
69369;SDS011;56530;42.640;23.372;2024-03-25T05:52:48;7.00;;;6.47;;
69369;SDS011;56530;42.640;23.372;2024-03-25T05:55:16;8.20;;;7.38;;
69369;SDS011;56530;42.640;23.372;2024-03-25T05:57:41;7.27;;;6.57;;
69369;SDS011;56530;42.640;23.372;2024-03-25T06:00:07;7.80;;;7.00;;
69369;SDS011;56530;42.640;23.372;2024-03-25T06:02:33;8.20;;;7.50;;
69369;SDS011;56530;42.640;23.372;2024-03-25T06:05:00;8.27;;;7.53;;
69369;SDS011;56530;42.640;23.372;2024-03-25T06:07:25;7.17;;;6.50;;
69369;SDS011;56530;42.640;23.372;2024-03-25T06:09:51;8.33;;;7.53;;
69369;SDS011;56530;42.640;23.372;2024-03-25T06:12:16;9.17;;;7.67;;
69369;SDS011;56530;42.640;23.372;2024-03-25T06:14:41;9.13;;;8.13;;
69369;SDS011;56530;42.640;23.372;2024-03-25T06:17:11;8.00;;;7.30;;
69369;SDS011;56530;42.640;23.372;2024-03-25T06:19:37;8.07;;;7.32;;
69369;SDS011;56530;42.640;23.372;2024-03-25T06:22:02;8.73;;;7.93;;
69369;SDS011;56530;42.640;23.372;2024-03-25T06:24:28;7.88;;;7.18;;
69369;SDS011;56530;42.640;23.372;2024-03-25T06:26:53;7.83;;;7.13;;
69369;SDS011;56530;42.640;23.372;2024-03-25T06:29:19;7.60;;;6.97;;
69369;SDS011;56530;42.640;23.372;2024-03-25T06:31:44;8.30;;;7.60;;
69369;SDS011;56530;42.640;23.372;2024-03-25T06:34:29;8.75;;;7.97;;
69369;SDS011;56530;42.640;23.372;2024-03-25T06:36:56;7.70;;;6.97;;
69369;SDS011;56530;42.640;23.372;2024-03-25T06:39:22;7.78;;;7.07;;
69369;SDS011;56530;42.640;23.372;2024-03-25T06:45:12;7.72;;;7.03;;
69369;SDS011;56530;42.640;23.372;2024-03-25T11:37:26;3.80;;;3.50;;
69369;SDS011;56530;42.640;23.372;2024-03-25T11:40:22;3.30;;;3.00;;
69369;SDS011;56530;42.640;23.372;2024-03-25T11:43:56;4.57;;;3.00;;
69369;SDS011;56530;42.640;23.372;2024-03-25T11:47:33;3.15;;;2.95;;
69369;SDS011;56530;42.640;23.372;2024-03-25T11:51:05;3.30;;;3.10;;
69369;SDS011;56530;42.640;23.372;2024-03-25T11:54:32;3.35;;;3.05;;
69369;SDS011;56530;42.640;23.372;2024-03-25T11:57:30;3.75;;;3.20;;
69369;SDS011;56530;42.640;23.372;2024-03-25T11:59:57;3.40;;;3.13;;
69369;SDS011;56530;42.640;23.372;2024-03-25T12:02:23;3.33;;;3.00;;
69369;SDS011;56530;42.640;23.372;2024-03-25T12:04:49;3.00;;;2.80;;
69369;SDS011;56530;42.640;23.372;2024-03-25T12:07:15;3.45;;;3.15;;
69369;SDS011;56530;42.640;23.372;2024-03-25T12:09:41;3.47;;;2.67;;
69369;SDS011;56530;42.640;23.372;2024-03-25T12:12:35;2.97;;;2.75;;
69369;SDS011;56530;42.640;23.372;2024-03-25T12:43:13;2.20;;;2.00;;
69369;SDS011;56530;42.640;23.372;2024-03-25T12:46:14;2.50;;;2.30;;
69369;SDS011;56530;42.640;23.372;2024-03-25T12:49:00;2.60;;;2.40;;
69369;SDS011;56530;42.640;23.372;2024-03-25T12:51:27;3.22;;;2.78;;
69369;SDS011;56530;42.640;23.372;2024-03-25T12:54:03;2.60;;;2.45;;
69369;SDS011;56530;42.640;23.372;2024-03-25T12:56:32;2.55;;;2.33;;
69369;SDS011;56530;42.640;23.372;2024-03-25T12:59:07;3.20;;;2.90;;
69369;SDS011;56530;42.640;23.372;2024-03-25T13:01:41;2.78;;;2.58;;
69369;SDS011;56530;42.640;23.372;2024-03-25T13:04:06;2.92;;;2.72;;
69369;SDS011;56530;42.640;23.372;2024-03-25T13:06:33;2.63;;;2.42;;
69369;SDS011;56530;42.640;23.372;2024-03-25T13:08:59;2.72;;;2.53;;
69369;SDS011;56530;42.640;23.372;2024-03-25T13:11:35;3.15;;;2.50;;
69369;SDS011;56530;42.640;23.372;2024-03-25T13:14:03;2.65;;;2.45;;
69369;SDS011;56530;42.640;23.372;2024-03-25T13:16:32;2.60;;;2.40;;
69369;SDS011;56530;42.640;23.372;2024-03-25T13:18:59;2.70;;;2.50;;
69369;SDS011;56530;42.640;23.372;2024-03-25T13:21:25;2.97;;;2.28;;
69369;SDS011;56530;42.640;23.372;2024-03-25T13:23:52;4.03;;;2.50;;
69369;SDS011;56530;42.640;23.372;2024-03-25T13:26:29;2.72;;;2.53;;
69369;SDS011;56530;42.640;23.372;2024-03-25T13:28:54;2.53;;;2.33;;
69369;SDS011;56530;42.640;23.372;2024-03-25T13:31:20;2.42;;;2.22;;
69369;SDS011;56530;42.640;23.372;2024-03-25T13:33:45;3.35;;;2.55;;
69369;SDS011;56530;42.640;23.372;2024-03-25T13:36:12;3.50;;;2.53;;
69369;SDS011;56530;42.640;23.372;2024-03-25T13:38:38;2.47;;;2.15;;
69369;SDS011;56530;42.640;23.372;2024-03-25T13:41:03;2.47;;;2.38;;
69369;SDS011;56530;42.640;23.372;2024-03-25T13:43:31;5.80;;;2.67;;
69369;SDS011;56530;42.640;23.372;2024-03-25T13:45:56;3.08;;;2.78;;
69369;SDS011;56530;42.640;23.372;2024-03-25T13:48:36;2.65;;;2.50;;
69369;SDS011;56530;42.640;23.372;2024-03-25T13:51:03;2.83;;;2.63;;
69369;SDS011;56530;42.640;23.372;2024-03-25T13:53:35;2.47;;;2.28;;
69369;SDS011;56530;42.640;23.372;2024-03-25T13:56:19;2.95;;;2.15;;
69369;SDS011;56530;42.640;23.372;2024-03-25T13:59:32;2.60;;;2.40;;
69369;SDS011;56530;42.640;23.372;2024-03-25T14:03:06;2.30;;;2.10;;
69369;SDS011;56530;42.640;23.372;2024-03-25T14:06:29;2.13;;;2.03;;
69369;SDS011;56530;42.640;23.372;2024-03-25T14:09:01;4.70;;;2.90;;
69369;SDS011;56530;42.640;23.372;2024-03-25T14:12:19;2.38;;;2.28;;
69369;SDS011;56530;42.640;23.372;2024-03-25T14:15:07;3.53;;;1.88;;
69369;SDS011;56530;42.640;23.372;2024-03-25T14:17:36;3.50;;;1.90;;
69369;SDS011;56530;42.640;23.372;2024-03-25T14:26:24;2.00;;;1.65;;
69369;SDS011;56530;42.640;23.372;2024-03-25T14:29:20;1.75;;;1.65;;
69369;SDS011;56530;42.640;23.372;2024-03-25T14:33:07;1.90;;;1.80;;
69369;SDS011;56530;42.640;23.372;2024-03-25T14:35:38;2.67;;;2.00;;
69369;SDS011;56530;42.640;23.372;2024-03-25T14:38:09;2.45;;;1.70;;
69369;SDS011;56530;42.640;23.372;2024-03-25T14:41:10;1.80;;;1.70;;
69369;SDS011;56530;42.640;23.372;2024-03-25T14:43:41;1.75;;;1.65;;
69369;SDS011;56530;42.640;23.372;2024-03-25T14:46:07;2.10;;;1.90;;
69369;SDS011;56530;42.640;23.372;2024-03-25T14:48:33;1.98;;;1.75;;
69369;SDS011;56530;42.640;23.372;2024-03-25T14:51:00;4.75;;;1.60;;
69369;SDS011;56530;42.640;23.372;2024-03-25T14:53:25;2.80;;;2.50;;
69369;SDS011;56530;42.640;23.372;2024-03-25T15:42:00;5.03;;;4.55;;
69369;SDS011;56530;42.640;23.372;2024-03-25T15:44:28;4.38;;;3.45;;
69369;SDS011;56530;42.640;23.372;2024-03-25T15:46:54;7.10;;;3.15;;
69369;SDS011;56530;42.640;23.372;2024-03-25T15:49:21;4.78;;;2.80;;
69369;SDS011;56530;42.640;23.372;2024-03-25T15:55:19;3.17;;;2.88;;
69369;SDS011;56530;42.640;23.372;2024-03-25T15:57:44;3.53;;;3.00;;
69369;SDS011;56530;42.640;23.372;2024-03-25T16:00:10;4.30;;;2.50;;
69369;SDS011;56530;42.640;23.372;2024-03-25T16:02:36;2.88;;;2.58;;
69369;SDS011;56530;42.640;23.372;2024-03-25T16:05:02;3.22;;;2.45;;
69369;SDS011;56530;42.640;23.372;2024-03-25T16:07:28;6.53;;;3.08;;
69369;SDS011;56530;42.640;23.372;2024-03-25T16:09:57;3.42;;;2.80;;
69369;SDS011;56530;42.640;23.372;2024-03-25T16:12:23;2.78;;;2.50;;
69369;SDS011;56530;42.640;23.372;2024-03-25T16:15:11;3.80;;;2.67;;
69369;SDS011;56530;42.640;23.372;2024-03-25T21:10:45;5.75;;;4.30;;
69369;SDS011;56530;42.640;23.372;2024-03-25T21:13:28;10.05;;;6.30;;
69369;SDS011;56530;42.640;23.372;2024-03-25T21:15:56;8.18;;;7.05;;
69369;SDS011;56530;42.640;23.372;2024-03-25T21:18:23;14.57;;;8.40;;
69369;SDS011;56530;42.640;23.372;2024-03-25T21:20:48;8.65;;;7.22;;
69369;SDS011;56530;42.640;23.372;2024-03-25T21:23:38;8.52;;;6.97;;
69369;SDS011;56530;42.640;23.372;2024-03-25T21:26:04;13.90;;;7.15;;
69369;SDS011;56530;42.640;23.372;2024-03-25T21:28:29;5.97;;;5.30;;
69369;SDS011;56530;42.640;23.372;2024-03-25T21:30:55;6.60;;;5.10;;
69369;SDS011;56530;42.640;23.372;2024-03-25T21:33:20;6.93;;;6.23;;
69369;SDS011;56530;42.640;23.372;2024-03-25T21:35:47;7.60;;;4.47;;
69369;SDS011;56530;42.640;23.372;2024-03-25T21:38:12;5.30;;;4.80;;
69369;SDS011;56530;42.640;23.372;2024-03-25T21:40:39;5.13;;;4.47;;
69369;SDS011;56530;42.640;23.372;2024-03-25T21:43:09;4.67;;;4.10;;
69369;SDS011;56530;42.640;23.372;2024-03-25T21:45:50;7.30;;;3.27;;
69369;SDS011;56530;42.640;23.372;2024-03-25T21:48:18;3.53;;;3.23;;
69369;SDS011;56530;42.640;23.372;2024-03-25T21:50:56;3.87;;;3.27;;
69369;SDS011;56530;42.640;23.372;2024-03-25T21:53:25;3.37;;;3.07;;
69369;SDS011;56530;42.640;23.372;2024-03-25T21:55:57;5.37;;;3.30;;
69369;SDS011;56530;42.640;23.372;2024-03-25T21:58:26;4.23;;;3.83;;
69369;SDS011;56530;42.640;23.372;2024-03-25T22:01:17;3.60;;;3.30;;
69369;SDS011;56530;42.640;23.372;2024-03-25T22:03:46;5.57;;;4.00;;
69369;SDS011;56530;42.640;23.372;2024-03-25T22:06:19;3.50;;;3.20;;
69369;SDS011;56530;42.640;23.372;2024-03-25T22:08:46;6.03;;;3.90;;
69369;SDS011;56530;42.640;23.372;2024-03-25T22:11:14;4.13;;;3.33;;
69369;SDS011;56530;42.640;23.372;2024-03-25T22:18:55;3.37;;;3.03;;
69369;SDS011;56530;42.640;23.372;2024-03-25T22:21:26;3.50;;;3.20;;
69369;SDS011;56530;42.640;23.372;2024-03-25T22:23:52;4.80;;;3.70;;
69369;SDS011;56530;42.640;23.372;2024-03-25T22:26:19;3.67;;;3.37;;
69369;SDS011;56530;42.640;23.372;2024-03-25T22:28:47;4.27;;;3.30;;
69369;SDS011;56530;42.640;23.372;2024-03-25T22:31:15;6.03;;;3.20;;
69369;SDS011;56530;42.640;23.372;2024-03-25T22:33:41;5.07;;;3.40;;
69369;SDS011;56530;42.640;23.372;2024-03-25T22:36:12;3.47;;;3.17;;
69369;SDS011;56530;42.640;23.372;2024-03-25T22:38:51;3.47;;;2.73;;
69369;SDS011;56530;42.640;23.372;2024-03-25T22:42:25;3.00;;;2.70;;
69369;SDS011;56530;42.640;23.372;2024-03-25T22:53:42;3.63;;;3.33;;
69369;SDS011;56530;42.640;23.372;2024-03-25T22:59:17;4.10;;;3.37;;
69369;SDS011;56530;42.640;23.372;2024-03-25T23:01:44;3.40;;;3.10;;
69369;SDS011;56530;42.640;23.372;2024-03-25T23:04:11;3.83;;;3.00;;
69369;SDS011;56530;42.640;23.372;2024-03-25T23:06:42;4.00;;;2.80;;
69369;SDS011;56530;42.640;23.372;2024-03-25T23:09:15;2.80;;;2.60;;
69369;SDS011;56530;42.640;23.372;2024-03-25T23:12:35;3.10;;;2.80;;
69369;SDS011;56530;42.640;23.372;2024-03-25T23:15:43;3.07;;;2.87;;
69369;SDS011;56530;42.640;23.372;2024-03-25T23:18:35;3.33;;;3.00;;
69369;SDS011;56530;42.640;23.372;2024-03-25T23:21:45;3.33;;;2.97;;
69369;SDS011;56530;42.640;23.372;2024-03-25T23:24:10;3.90;;;3.50;;
69369;SDS011;56530;42.640;23.372;2024-03-25T23:26:36;4.90;;;3.97;;
69369;SDS011;56530;42.640;23.372;2024-03-25T23:29:06;5.63;;;3.30;;
69369;SDS011;56530;42.640;23.372;2024-03-25T23:31:34;5.37;;;3.60;;
69369;SDS011;56530;42.640;23.372;2024-03-25T23:34:00;4.90;;;3.73;;
69369;SDS011;56530;42.640;23.372;2024-03-25T23:36:29;7.17;;;4.13;;
69369;SDS011;56530;42.640;23.372;2024-03-25T23:38:58;4.83;;;4.43;;
69369;SDS011;56530;42.640;23.372;2024-03-25T23:41:28;5.10;;;4.60;;
69369;SDS011;56530;42.640;23.372;2024-03-25T23:43:54;4.67;;;4.23;;
69369;SDS011;56530;42.640;23.372;2024-03-25T23:46:19;5.63;;;4.50;;
69369;SDS011;56530;42.640;23.372;2024-03-25T23:48:50;5.07;;;4.13;;
69369;SDS011;56530;42.640;23.372;2024-03-25T23:51:17;4.07;;;3.63;;
69369;SDS011;56530;42.640;23.372;2024-03-25T23:53:57;4.80;;;3.90;;
69369;SDS011;56530;42.640;23.372;2024-03-25T23:56:32;4.50;;;3.67;;
69369;SDS011;56530;42.640;23.372;2024-03-25T23:58:59;4.47;;;4.00;;
